Time;durP1;ratioP1;P1;durP2;ratioP2;P2;SDS_P1;SDS_P2;PMS_P1;PMS_P2;Temp;Humidity;BMP_temperature;BMP_pressure;BME280_temperature;BME280_humidity;BME280_pressure;Samples;Min_cycle;Max_cycle;Signal;HPM_P1;HPM_P2
2023/03/05 00:01:32;;;;;;;0.70;0.70;;;20.60;33.20;;;;;;6140225;29;20044;-50
2023/03/05 00:04:33;;;;;;;0.68;0.60;;;20.70;33.30;;;;;;6138500;29;20063;-49
2023/03/05 00:07:35;;;;;;;0.70;0.60;;;20.70;33.30;;;;;;6138107;29;20111;-48
2023/03/05 00:10:37;;;;;;;0.70;0.70;;;20.70;33.30;;;;;;6137581;29;20046;-50
2023/03/05 00:13:39;;;;;;;1.20;0.90;;;20.60;33.30;;;;;;6139359;29;20043;-49
2023/03/05 00:16:40;;;;;;;1.00;0.90;;;20.70;33.30;;;;;;6105664;29;20051;-48
2023/03/05 00:19:42;;;;;;;0.65;0.60;;;20.60;33.30;;;;;;6139140;29;20085;-46
2023/03/05 00:22:45;;;;;;;0.90;0.80;;;20.50;33.30;;;;;;6138205;29;20487;-46
2023/03/05 00:25:47;;;;;;;0.93;0.82;;;20.60;33.30;;;;;;6136295;29;20042;-46
2023/03/05 00:28:50;;;;;;;0.70;0.68;;;20.30;33.10;;;;;;6139553;29;20052;-50
2023/03/05 00:31:52;;;;;;;0.73;0.70;;;20.40;33.20;;;;;;6138894;29;20095;-50
2023/03/05 00:34:53;;;;;;;;;;;20.60;33.30;;;;;;6140509;29;20099;-49
2023/03/05 00:37:54;;;;;;;0.80;0.60;;;20.40;33.40;;;;;;6140373;29;19922;-47
2023/03/05 00:40:57;;;;;;;0.70;0.70;;;20.40;33.20;;;;;;6140966;29;20058;-50
2023/03/05 00:43:59;;;;;;;0.88;0.88;;;20.50;33.30;;;;;;6141657;29;20051;-51
2023/03/05 00:47:01;;;;;;;0.65;0.65;;;20.40;33.30;;;;;;6139036;29;20130;-48
2023/03/05 00:50:03;;;;;;;;;;;20.40;33.30;;;;;;6138350;29;20060;-48
2023/03/05 00:53:05;;;;;;;0.55;0.55;;;20.70;33.50;;;;;;6136522;29;19930;-49
2023/03/05 00:56:07;;;;;;;1.02;0.88;;;20.40;33.30;;;;;;6138603;29;20047;-48
2023/03/05 00:59:08;;;;;;;0.65;0.60;;;20.70;33.50;;;;;;6138783;29;20043;-48
2023/03/05 01:02:10;;;;;;;0.88;0.70;;;20.20;33.20;;;;;;6138353;29;20054;-50
2023/03/05 01:05:13;;;;;;;;;;;20.20;33.20;;;;;;6137718;29;20044;-49
2023/03/05 01:08:15;;;;;;;0.60;0.60;;;20.30;33.40;;;;;;6138094;29;19922;-51
2023/03/05 01:11:17;;;;;;;0.80;0.70;;;20.60;33.50;;;;;;6138056;29;20052;-48
2023/03/05 01:14:19;;;;;;;0.60;0.60;;;20.30;33.40;;;;;;6135827;29;20039;-48
2023/03/05 01:17:21;;;;;;;0.70;0.57;;;20.40;33.40;;;;;;6137236;29;20052;-50
2023/03/05 01:20:23;;;;;;;0.93;0.70;;;20.60;33.60;;;;;;6136379;29;20092;-48
2023/03/05 01:23:24;;;;;;;;;;;20.60;33.60;;;;;;6136631;29;20039;-47
2023/03/05 01:26:26;;;;;;;0.68;0.63;;;20.30;33.50;;;;;;6136230;29;19923;-44
2023/03/05 01:29:28;;;;;;;0.60;0.60;;;20.50;33.50;;;;;;6136176;29;20044;-48
2023/03/05 01:32:29;;;;;;;0.70;0.70;;;20.40;33.40;;;;;;6135372;29;20054;-45
2023/03/05 01:35:31;;;;;;;;;;;20.60;33.50;;;;;;6136353;29;20044;-49
2023/03/05 01:38:32;;;;;;;0.50;0.50;;;20.60;33.70;;;;;;6135466;29;19933;-50
2023/03/05 01:41:35;;;;;;;0.70;0.70;;;20.30;33.40;;;;;;6134896;29;20484;-46
2023/03/05 01:44:37;;;;;;;0.63;0.60;;;20.50;33.50;;;;;;6133569;29;20389;-45
2023/03/05 01:47:39;;;;;;;0.50;0.50;;;20.30;33.40;;;;;;6135969;29;20408;-47
2023/03/05 01:50:40;;;;;;;0.85;0.70;;;20.60;33.60;;;;;;6134405;29;20048;-50
2023/03/05 01:53:42;;;;;;;0.70;0.70;;;20.30;33.50;;;;;;6134571;29;20107;-46
2023/03/05 01:56:45;;;;;;;;;;;20.50;33.60;;;;;;6135068;29;20043;-48
2023/03/05 01:59:50;;;;;;;0.75;0.70;;;20.10;34.10;;;;;;6133825;29;19931;-47
2023/03/05 02:02:52;;;;;;;0.80;0.70;;;20.20;33.40;;;;;;6134586;29;20412;-49
2023/03/05 02:05:53;;;;;;;0.93;0.82;;;20.40;33.50;;;;;;6134858;29;20050;-47
2023/03/05 02:08:56;;;;;;;0.60;0.50;;;20.20;33.50;;;;;;6135583;29;20534;-49
2023/03/05 02:11:58;;;;;;;0.93;0.85;;;20.50;33.70;;;;;;6134242;29;20516;-47
2023/03/05 02:14:59;;;;;;;0.77;0.70;;;20.40;33.60;;;;;;6135283;29;20103;-46
2023/03/05 02:18:01;;;;;;;;;;;20.30;33.60;;;;;;6135297;29;20427;-49
2023/03/05 02:21:04;;;;;;;0.75;0.63;;;20.30;33.80;;;;;;6136230;29;20017;-47
2023/03/05 02:24:06;;;;;;;0.90;0.70;;;20.70;33.90;;;;;;6135175;29;20099;-48
2023/03/05 02:27:08;;;;;;;0.80;0.70;;;20.20;33.60;;;;;;6134533;29;20132;-50
2023/03/05 02:30:11;;;;;;;1.08;0.98;;;20.40;33.70;;;;;;6135045;29;20043;-46
2023/03/05 02:33:14;;;;;;;1.08;0.98;;;20.20;33.70;;;;;;6134931;29;20044;-48
2023/03/05 02:36:17;;;;;;;0.77;0.68;;;20.50;33.80;;;;;;6133554;29;20532;-50
2023/03/05 02:39:18;;;;;;;0.82;0.80;;;20.50;33.90;;;;;;6134724;29;20055;-50
2023/03/05 02:42:20;;;;;;;0.80;0.65;;;20.50;33.90;;;;;;6135053;29;20044;-48
2023/03/05 02:45:22;;;;;;;0.60;0.60;;;20.40;33.80;;;;;;6134095;29;20040;-45
2023/03/05 02:48:24;;;;;;;0.70;0.60;;;20.40;33.90;;;;;;6135744;29;20103;-47
2023/03/05 02:51:26;;;;;;;1.20;1.00;;;20.30;33.80;;;;;;6134519;29;20071;-50
2023/03/05 02:54:28;;;;;;;0.82;0.70;;;20.50;33.90;;;;;;6134644;29;20043;-47
2023/03/05 02:57:31;;;;;;;1.00;0.70;;;20.50;34.00;;;;;;6134442;29;20124;-49
2023/03/05 03:00:33;;;;;;;0.70;0.63;;;20.40;33.90;;;;;;6133311;29;20079;-47
2023/03/05 03:03:34;;;;;;;1.10;1.00;;;20.50;33.90;;;;;;6134603;29;20044;-47
2023/03/05 03:06:36;;;;;;;0.95;0.85;;;20.50;34.00;;;;;;6133776;29;20473;-45
2023/03/05 03:09:38;;;;;;;0.98;0.80;;;20.40;34.00;;;;;;6135691;29;20051;-48
2023/03/05 03:12:41;;;;;;;1.10;1.00;;;20.40;34.00;;;;;;6136225;29;20076;-48
2023/03/05 03:15:42;;;;;;;0.70;0.70;;;20.40;34.00;;;;;;6137268;29;20036;-47
2023/03/05 03:18:46;;;;;;;0.73;0.70;;;20.60;34.20;;;;;;6137413;29;20440;-44
2023/03/05 03:21:49;;;;;;;0.88;0.80;;;20.20;34.00;;;;;;6137406;29;20044;-49
2023/03/05 03:24:50;;;;;;;0.73;0.73;;;20.50;34.10;;;;;;6137279;29;20107;-50
2023/03/05 03:27:52;;;;;;;0.75;0.70;;;20.20;34.00;;;;;;6139222;29;20083;-49
2023/03/05 03:30:53;;;;;;;0.80;0.75;;;20.40;34.10;;;;;;6140079;29;20048;-47
2023/03/05 03:33:54;;;;;;;;;;;20.50;34.20;;;;;;6139778;29;20382;-50
2023/03/05 03:36:56;;;;;;;1.05;0.93;;;20.50;34.30;;;;;;6139652;29;19923;-46
2023/03/05 03:39:58;;;;;;;1.00;0.80;;;20.40;34.20;;;;;;6139234;29;20106;-48
2023/03/05 03:42:59;;;;;;;0.82;0.65;;;20.50;34.20;;;;;;6139156;29;20043;-46
2023/03/05 03:46:03;;;;;;;0.70;0.70;;;20.30;34.20;;;;;;6139485;29;20043;-50
2023/03/05 03:49:06;;;;;;;0.93;0.90;;;20.50;34.20;;;;;;6140129;29;20051;-50
2023/03/05 03:52:08;;;;;;;1.05;0.70;;;20.10;34.10;;;;;;6138772;29;20051;-47
2023/03/05 03:55:10;;;;;;;0.98;0.80;;;20.40;34.30;;;;;;6141010;29;20036;-49
2023/03/05 03:58:11;;;;;;;0.77;0.70;;;20.20;34.20;;;;;;6139171;29;20059;-47
2023/03/05 04:01:13;;;;;;;1.00;0.90;;;20.30;34.30;;;;;;6139126;29;20047;-50
2023/03/05 04:04:14;;;;;;;;;;;20.40;34.30;;;;;;6138962;29;20043;-48
2023/03/05 04:07:17;;;;;;;0.73;0.73;;;20.30;34.50;;;;;;6137621;29;19929;-48
2023/03/05 04:10:19;;;;;;;0.70;0.70;;;20.40;34.40;;;;;;6138157;29;20178;-49
2023/03/05 04:13:20;;;;;;;0.90;0.77;;;20.40;34.30;;;;;;6137591;29;20044;-51
2023/03/05 04:16:22;;;;;;;;;;;20.20;34.30;;;;;;6137331;29;20052;-46
2023/03/05 04:19:23;;;;;;;0.80;0.77;;;20.10;34.30;;;;;;6136377;29;19922;-48
2023/03/05 04:22:25;;;;;;;;;;;20.30;34.30;;;;;;6138205;29;20047;-48
2023/03/05 04:25:27;;;;;;;1.10;1.00;;;20.00;34.40;;;;;;6137655;29;19922;-47
2023/03/05 04:28:30;;;;;;;1.27;1.00;;;20.20;34.30;;;;;;6138817;29;20185;-46
2023/03/05 04:31:31;;;;;;;0.77;0.77;;;20.30;34.30;;;;;;6122566;29;20044;-49
2023/03/05 04:34:34;;;;;;;0.80;0.80;;;20.10;34.10;;;;;;6138249;29;20047;-51
2023/03/05 04:37:36;;;;;;;0.95;0.80;;;20.10;34.00;;;;;;6136697;29;20070;-50
2023/03/05 04:40:38;;;;;;;1.10;0.93;;;20.40;34.10;;;;;;6135376;29;20058;-49
2023/03/05 04:43:39;;;;;;;;;;;20.20;33.90;;;;;;6138032;29;20044;-46
2023/03/05 04:46:40;;;;;;;0.98;0.90;;;20.30;34.10;;;;;;6137993;29;19922;-50
2023/03/05 04:49:43;;;;;;;1.30;1.00;;;20.20;33.80;;;;;;6138197;29;20127;-48
2023/03/05 04:52:45;;;;;;;1.00;0.82;;;20.00;33.40;;;;;;6138255;29;20046;-49
2023/03/05 04:55:52;;;;;;;0.80;0.80;;;20.20;33.30;;;;;;6136194;29;20118;-47
2023/03/05 04:58:53;;;;;;;1.10;1.00;;;20.40;33.30;;;;;;6137635;29;20039;-49
2023/03/05 05:01:55;;;;;;;0.88;0.88;;;20.30;33.10;;;;;;6137425;29;20043;-50
2023/03/05 05:04:56;;;;;;;;;;;20.40;33.00;;;;;;6137782;29;20051;-47
2023/03/05 05:07:58;;;;;;;1.08;0.90;;;20.30;33.00;;;;;;6137686;29;19930;-49
2023/03/05 05:11:02;;;;;;;0.80;0.80;;;20.40;33.00;;;;;;6137178;29;20063;-46
2023/03/05 05:14:04;;;;;;;0.68;0.68;;;20.30;32.70;;;;;;6136214;29;20047;-48
2023/03/05 05:17:06;;;;;;;0.95;0.85;;;20.30;32.50;;;;;;6136782;29;20046;-49
2023/03/05 05:20:10;;;;;;;1.13;0.90;;;20.40;32.50;;;;;;6137385;29;20047;-49
2023/03/05 05:23:12;;;;;;;0.95;0.80;;;20.00;32.10;;;;;;6135712;29;20501;-46
2023/03/05 05:26:14;;;;;;;1.10;0.95;;;20.40;32.10;;;;;;6119837;29;20175;-49
2023/03/05 05:29:16;;;;;;;1.02;0.93;;;20.20;31.90;;;;;;6119617;29;20039;-48
2023/03/05 05:32:18;;;;;;;1.00;0.90;;;20.30;31.90;;;;;;6135742;29;20044;-46
2023/03/05 05:35:20;;;;;;;1.52;1.02;;;20.20;31.80;;;;;;6135973;29;20075;-45
2023/03/05 05:38:22;;;;;;;0.77;0.60;;;20.30;31.90;;;;;;6136288;29;20099;-50
2023/03/05 05:41:24;;;;;;;1.10;1.00;;;20.10;31.80;;;;;;6136589;29;20118;-47
2023/03/05 05:44:25;;;;;;;1.05;0.95;;;20.30;31.80;;;;;;6136567;29;20059;-48
2023/03/05 05:47:30;;;;;;;0.80;0.70;;;20.20;31.60;;;;;;6135944;29;20477;-48
2023/03/05 05:50:31;;;;;;;1.02;0.93;;;20.30;31.60;;;;;;6136159;29;20044;-49
2023/03/05 05:53:33;;;;;;;;;;;20.30;31.40;;;;;;6137132;29;20106;-45
2023/03/05 05:56:36;;;;;;;;;;;20.30;31.50;;;;;;6136678;29;20448;-45
2023/03/05 05:59:37;;;;;;;1.00;0.90;;;20.30;31.70;;;;;;6136507;29;19929;-46
2023/03/05 06:02:39;;;;;;;0.82;0.75;;;20.00;31.30;;;;;;6136181;29;20048;-46
2023/03/05 06:05:42;;;;;;;1.00;0.80;;;20.30;31.40;;;;;;6134809;29;20055;-47
2023/03/05 06:08:44;;;;;;;1.15;1.05;;;20.00;31.20;;;;;;6135200;29;20047;-47
2023/03/05 06:11:45;;;;;;;1.05;0.95;;;20.10;31.20;;;;;;6135906;29;20441;-49
2023/03/05 06:14:47;;;;;;;;;;;20.50;31.50;;;;;;6134278;29;20048;-47
2023/03/05 06:17:48;;;;;;;0.70;0.70;;;20.00;31.30;;;;;;6135485;29;19974;-48
2023/03/05 06:20:53;;;;;;;;;;;20.00;31.20;;;;;;6136643;29;20048;-45
2023/03/05 06:23:57;;;;;;;0.90;0.90;;;20.00;31.30;;;;;;6135841;29;19922;-49
2023/03/05 06:26:58;;;;;;;0.80;0.80;;;20.20;31.30;;;;;;6134011;29;20523;-50
2023/03/05 06:30:02;;;;;;;1.05;0.85;;;20.30;31.40;;;;;;6135706;29;20067;-49
2023/03/05 06:33:03;;;;;;;1.00;0.90;;;20.20;31.30;;;;;;6136237;29;20044;-50
2023/03/05 06:36:07;;;;;;;0.95;0.85;;;20.10;31.20;;;;;;6135825;29;20040;-49
2023/03/05 06:39:09;;;;;;;0.73;0.73;;;20.10;31.20;;;;;;6134253;29;20072;-47
2023/03/05 06:42:11;;;;;;;0.80;0.80;;;20.00;31.10;;;;;;6135968;29;20047;-49
2023/03/05 06:45:12;;;;;;;;;;;20.10;31.10;;;;;;6140137;29;20043;-48
2023/03/05 06:48:13;;;;;;;0.80;0.68;;;20.00;31.20;;;;;;6139463;29;19927;-47
2023/03/05 06:51:17;;;;;;;0.90;0.90;;;20.10;31.10;;;;;;6139507;29;20104;-46
2023/03/05 06:54:19;;;;;;;0.80;0.70;;;20.10;31.00;;;;;;6138829;29;20043;-49
2023/03/05 06:57:21;;;;;;;0.90;0.90;;;20.20;31.10;;;;;;6140487;29;20051;-47
2023/03/05 07:00:23;;;;;;;;;;;20.30;31.00;;;;;;6140218;29;20214;-49
2023/03/05 07:03:24;;;;;;;0.82;0.80;;;20.00;31.00;;;;;;6140691;29;19930;-48
2023/03/05 07:06:26;;;;;;;0.50;0.50;;;19.80;30.80;;;;;;6139634;29;20047;-47
2023/03/05 07:09:29;;;;;;;1.05;0.95;;;19.80;30.70;;;;;;6137810;29;20047;-49
2023/03/05 07:12:31;;;;;;;0.75;0.70;;;20.20;30.90;;;;;;6139462;29;20378;-47
2023/03/05 07:15:32;;;;;;;1.25;0.70;;;20.10;30.80;;;;;;6139693;29;20099;-48
2023/03/05 07:18:34;;;;;;;;;;;20.20;30.80;;;;;;6140002;29;20054;-49
2023/03/05 07:21:36;;;;;;;;;;;20.20;30.90;;;;;;6140247;28;19994;-46
2023/03/05 07:24:41;;;;;;;0.60;0.60;;;20.00;31.50;;;;;;6139887;29;20018;-47
2023/03/05 07:27:42;;;;;;;0.60;0.50;;;20.30;30.80;;;;;;6139691;29;20059;-47
2023/03/05 07:30:44;;;;;;;0.70;0.65;;;20.00;30.50;;;;;;6139523;29;20047;-46
2023/03/05 07:33:46;;;;;;;0.45;0.45;;;20.30;30.60;;;;;;6140826;29;20043;-51
2023/03/05 07:36:49;;;;;;;0.60;0.52;;;20.20;30.50;;;;;;6138501;29;20519;-47
2023/03/05 07:39:51;;;;;;;0.50;0.50;;;20.30;30.50;;;;;;6139791;29;20044;-49
2023/03/05 07:42:53;;;;;;;0.85;0.70;;;20.10;30.30;;;;;;6139597;29;20055;-45
2023/03/05 07:46:04;;;;;;;0.60;0.50;;;20.20;30.30;;;;;;6140019;29;20059;-49
2023/03/05 07:49:06;;;;;;;0.50;0.50;;;20.40;30.30;;;;;;6138033;29;20055;-50
2023/03/05 07:52:08;;;;;;;0.60;0.50;;;20.40;30.30;;;;;;6139611;29;20047;-48
2023/03/05 07:55:13;;;;;;;0.60;0.60;;;20.30;30.10;;;;;;6138030;29;20052;-48
2023/03/05 07:58:15;;;;;;;0.55;0.55;;;20.30;30.10;;;;;;6139430;29;20040;-46
2023/03/05 08:01:16;;;;;;;1.02;0.60;;;20.40;30.10;;;;;;6138432;29;20048;-50
2023/03/05 08:04:18;;;;;;;0.45;0.40;;;20.50;30.20;;;;;;6139288;29;20500;-46
2023/03/05 08:07:22;;;;;;;0.90;0.70;;;20.50;30.10;;;;;;6139829;29;20103;-50
2023/03/05 08:10:24;;;;;;;0.50;0.50;;;20.60;30.10;;;;;;6139324;29;20047;-49
2023/03/05 08:13:28;;;;;;;0.60;0.60;;;20.30;30.00;;;;;;6138789;29;20067;-51
2023/03/05 08:16:30;;;;;;;0.40;0.40;;;20.60;30.10;;;;;;6139060;29;20139;-44
2023/03/05 08:19:32;;;;;;;0.77;0.70;;;20.40;30.00;;;;;;6138475;29;20075;-47
2023/03/05 08:22:34;;;;;;;0.55;0.55;;;20.50;30.00;;;;;;6138089;29;20377;-49
2023/03/05 08:25:37;;;;;;;;;;;20.50;30.00;;;;;;6138402;29;20043;-49
2023/03/05 08:28:38;;;;;;;0.40;0.40;;;20.50;30.00;;;;;;6139717;29;19922;-50
2023/03/05 08:31:44;;;;;;;0.30;0.30;;;20.50;30.00;;;;;;6139140;29;20040;-46
2023/03/05 08:34:45;;;;;;;0.50;0.50;;;20.40;29.90;;;;;;6138629;29;20465;-49
2023/03/05 08:37:47;;;;;;;0.70;0.40;;;20.40;29.90;;;;;;6139574;29;20048;-47
2023/03/05 08:40:49;;;;;;;0.60;0.60;;;20.60;29.90;;;;;;6139131;29;20060;-49
2023/03/05 08:43:51;;;;;;;0.57;0.43;;;20.80;30.00;;;;;;6139044;29;20068;-50
2023/03/05 08:46:52;;;;;;;;;;;20.70;29.90;;;;;;6139086;29;20039;-49
2023/03/05 08:49:56;;;;;;;0.50;0.40;;;20.50;29.90;;;;;;6138923;29;19938;-50
2023/03/05 08:53:01;;;;;;;0.40;0.40;;;20.60;30.00;;;;;;6138727;29;20076;-48
2023/03/05 08:56:03;;;;;;;0.40;0.40;;;20.80;29.90;;;;;;6138625;29;20129;-48
2023/03/05 08:59:05;;;;;;;0.55;0.40;;;20.70;29.90;;;;;;6138374;29;20044;-47
2023/03/05 09:02:06;;;;;;;0.70;0.70;;;20.70;29.80;;;;;;6137132;29;20048;-47
2023/03/05 09:05:08;;;;;;;;;;;20.70;29.80;;;;;;6139162;29;20054;-50
2023/03/05 09:08:09;;;;;;;0.60;0.60;;;20.40;29.80;;;;;;6138668;29;19923;-46
2023/03/05 09:11:12;;;;;;;;;;;20.70;29.90;;;;;;6137128;29;20047;-47
2023/03/05 09:14:14;;;;;;;0.68;0.60;;;20.50;29.80;;;;;;6137044;29;19929;-46
2023/03/05 09:17:15;;;;;;;;;;;20.80;29.90;;;;;;6138587;29;20044;-48
2023/03/05 09:20:17;;;;;;;0.50;0.50;;;20.80;30.00;;;;;;6138182;29;19929;-48
2023/03/05 09:23:19;;;;;;;0.68;0.60;;;20.70;29.80;;;;;;6138933;29;20047;-51
2023/03/05 09:26:23;;;;;;;0.47;0.45;;;20.80;29.80;;;;;;6137426;29;20051;-48
2023/03/05 09:29:29;;;;;;;0.50;0.50;;;20.70;29.90;;;;;;6138287;29;20043;-49
2023/03/05 09:32:31;;;;;;;0.50;0.50;;;20.80;29.80;;;;;;6137955;29;20076;-51
2023/03/05 09:35:35;;;;;;;0.60;0.50;;;20.70;29.70;;;;;;6138831;29;20044;-50
2023/03/05 09:38:38;;;;;;;0.77;0.50;;;20.50;29.60;;;;;;6138424;29;20043;-46
2023/03/05 09:42:07;;;;;;;0.60;0.57;;;20.60;29.60;;;;;;6138021;29;20444;-49
2023/03/05 09:45:20;;;;;;;0.40;0.40;;;20.80;29.60;;;;;;6138384;29;20044;-49
2023/03/05 09:48:26;;;;;;;0.50;0.50;;;20.90;29.60;;;;;;6138134;29;20047;-50
2023/03/05 09:51:34;;;;;;;0.47;0.47;;;20.50;29.40;;;;;;6136488;29;20047;-46
2023/03/05 09:54:39;;;;;;;0.60;0.60;;;20.60;29.40;;;;;;6136591;29;20040;-51
2023/03/05 09:57:49;;;;;;;0.60;0.50;;;20.90;29.50;;;;;;6136913;29;20048;-47
2023/03/05 10:00:54;;;;;;;0.50;0.50;;;20.60;29.40;;;;;;6138114;29;20480;-50
2023/03/05 10:03:59;;;;;;;0.55;0.55;;;20.80;29.40;;;;;;6136468;29;20063;-47
2023/03/05 10:07:07;;;;;;;0.40;0.40;;;20.70;29.30;;;;;;6136463;29;20134;-50
2023/03/05 10:10:13;;;;;;;0.50;0.50;;;20.70;29.30;;;;;;6137354;29;20052;-49
2023/03/05 10:13:23;;;;;;;0.43;0.40;;;20.90;29.30;;;;;;6137967;29;20048;-48
2023/03/05 10:16:43;;;;;;;0.52;0.45;;;20.60;29.20;;;;;;6137137;29;20039;-47
2023/03/05 10:20:08;;;;;;;0.75;0.50;;;20.60;29.10;;;;;;6140426;29;20046;-45
2023/03/05 10:23:23;;;;;;;0.60;0.60;;;20.90;29.20;;;;;;6140278;29;20051;-44
2023/03/05 10:26:37;;;;;;;0.40;0.40;;;20.80;29.20;;;;;;6141467;29;20047;-48
2023/03/05 10:29:54;;;;;;;0.60;0.50;;;20.70;29.10;;;;;;6142278;29;20044;-47
2023/03/05 10:33:02;;;;;;;0.60;0.50;;;21.00;29.20;;;;;;6139684;29;20420;-48
2023/03/05 10:36:19;;;;;;;0.50;0.50;;;20.60;29.00;;;;;;6140594;29;20059;-51
2023/03/05 10:39:41;;;;;;;0.40;0.40;;;21.00;29.10;;;;;;6141968;29;20160;-48
2023/03/05 10:42:50;;;;;;;0.40;0.40;;;21.00;29.00;;;;;;6139810;29;20087;-48
2023/03/05 10:45:56;;;;;;;0.40;0.40;;;20.90;29.00;;;;;;6141570;29;20362;-48
2023/03/05 10:49:04;;;;;;;0.30;0.30;;;21.00;29.00;;;;;;6142125;29;20526;-48
2023/03/05 10:52:10;;;;;;;0.60;0.50;;;20.60;28.80;;;;;;6140726;29;20043;-48
2023/03/05 10:55:14;;;;;;;0.60;0.40;;;21.10;29.00;;;;;;6140938;29;20039;-48
2023/03/05 10:58:17;;;;;;;0.30;0.30;;;21.00;28.90;;;;;;6141992;29;20098;-50
2023/03/05 11:01:21;;;;;;;0.40;0.40;;;20.90;28.90;;;;;;6141471;29;20084;-47
2023/03/05 11:04:27;;;;;;;0.52;0.50;;;20.90;28.80;;;;;;6140892;29;20048;-50
2023/03/05 11:07:32;;;;;;;0.50;0.50;;;21.00;28.80;;;;;;6140489;29;20047;-45
2023/03/05 11:10:34;;;;;;;0.40;0.40;;;20.80;28.70;;;;;;6124749;29;20044;-49
2023/03/05 11:13:37;;;;;;;0.40;0.40;;;21.00;28.80;;;;;;6142194;29;20052;-50
2023/03/05 11:16:49;;;;;;;0.45;0.43;;;20.90;28.70;;;;;;6141621;29;20552;-48
2023/03/05 11:19:51;;;;;;;0.40;0.40;;;21.00;28.70;;;;;;6141895;29;20050;-51
2023/03/05 11:23:04;;;;;;;0.32;0.32;;;20.90;28.70;;;;;;6141083;29;20047;-45
2023/03/05 11:26:18;;;;;;;0.45;0.30;;;20.90;28.60;;;;;;6123920;29;20051;-48
2023/03/05 11:29:26;;;;;;;0.47;0.47;;;20.70;28.50;;;;;;6137548;29;20416;-47
2023/03/05 11:32:30;;;;;;;0.30;0.30;;;21.10;28.70;;;;;;6123094;29;20052;-47
2023/03/05 11:35:33;;;;;;;0.50;0.50;;;21.00;28.60;;;;;;6140143;29;20040;-46
2023/03/05 11:38:45;;;;;;;0.77;0.40;;;21.10;28.70;;;;;;6123608;29;20051;-50
2023/03/05 11:41:48;;;;;;;;;;;20.70;28.40;;;;;;6124692;29;20047;-49
2023/03/05 11:44:52;;;;;;;0.50;0.40;;;20.70;28.50;;;;;;6139711;29;19922;-47
2023/03/05 11:48:03;;;;;;;0.30;0.30;;;20.70;28.50;;;;;;6138976;29;20055;-50
2023/03/05 11:51:07;;;;;;;;;;;21.00;28.60;;;;;;6141826;29;20048;-50
2023/03/05 11:54:17;;;;;;;0.30;0.30;;;21.10;28.70;;;;;;6140009;29;19923;-50
2023/03/05 11:57:23;;;;;;;0.50;0.50;;;21.00;28.60;;;;;;6138370;29;20043;-47
2023/03/05 12:00:28;;;;;;;0.57;0.50;;;21.00;28.60;;;;;;6138770;29;20048;-46
2023/03/05 12:03:33;;;;;;;0.40;0.35;;;21.00;28.60;;;;;;6139957;29;20043;-51
2023/03/05 12:06:39;;;;;;;0.35;0.35;;;20.80;28.50;;;;;;6138968;29;20039;-49
2023/03/05 12:09:45;;;;;;;0.35;0.35;;;21.10;28.60;;;;;;6139945;29;20071;-47
2023/03/05 12:12:56;;;;;;;0.50;0.50;;;21.10;28.60;;;;;;6139786;29;20044;-47
2023/03/05 12:16:05;;;;;;;0.22;0.22;;;20.90;28.50;;;;;;6140288;29;20095;-46
2023/03/05 12:19:22;;;;;;;0.70;0.50;;;21.00;28.50;;;;;;6140828;29;20047;-45
2023/03/05 12:22:30;;;;;;;0.30;0.30;;;20.90;28.40;;;;;;6138982;29;20050;-49
2023/03/05 12:25:33;;;;;;;0.38;0.30;;;21.10;28.50;;;;;;6140263;29;20071;-45
2023/03/05 12:28:54;;;;;;;0.47;0.30;;;20.90;28.40;;;;;;6141212;29;20047;-49
2023/03/05 12:31:57;;;;;;;0.47;0.47;;;20.80;28.30;;;;;;6140223;29;20043;-49
2023/03/05 12:35:00;;;;;;;0.28;0.28;;;21.20;28.40;;;;;;6139278;29;20035;-46
2023/03/05 12:38:15;;;;;;;0.20;0.20;;;20.90;28.30;;;;;;6139870;29;20043;-49
2023/03/05 12:41:35;;;;;;;0.55;0.45;;;21.00;28.30;;;;;;6140310;29;20134;-46
2023/03/05 12:44:38;;;;;;;0.30;0.30;;;21.00;28.30;;;;;;6140048;29;20067;-50
2023/03/05 12:47:41;;;;;;;0.30;0.30;;;20.90;28.20;;;;;;6138784;29;20044;-46
2023/03/05 12:50:56;;;;;;;0.40;0.32;;;20.90;28.20;;;;;;6121384;29;20069;-50
2023/03/05 12:54:21;;;;;;;0.30;0.30;;;21.10;28.30;;;;;;6139630;29;20437;-49
2023/03/05 12:57:25;;;;;;;0.35;0.30;;;21.10;28.20;;;;;;6137872;29;20079;-47
2023/03/05 13:00:32;;;;;;;0.43;0.40;;;21.00;28.20;;;;;;6138960;29;20043;-49
2023/03/05 13:03:42;;;;;;;0.82;0.40;;;21.20;28.30;;;;;;6122896;29;20047;-48
2023/03/05 13:06:45;;;;;;;0.50;0.40;;;21.10;28.20;;;;;;6123037;29;20071;-48
2023/03/05 13:09:55;;;;;;;0.30;0.20;;;21.00;28.20;;;;;;6138888;29;20080;-50
2023/03/05 13:12:57;;;;;;;0.40;0.30;;;21.10;28.30;;;;;;6137787;29;20044;-47
2023/03/05 13:16:00;;;;;;;0.40;0.38;;;21.20;28.30;;;;;;6138992;29;20118;-48
2023/03/05 13:19:03;;;;;;;0.40;0.40;;;21.00;28.20;;;;;;6138632;29;20488;-47
2023/03/05 13:22:11;;;;;;;0.40;0.40;;;20.90;28.20;;;;;;6137449;29;20052;-44
2023/03/05 13:25:15;;;;;;;0.40;0.40;;;21.20;28.30;;;;;;6138640;29;20048;-48
2023/03/05 13:28:16;;;;;;;0.60;0.50;;;20.90;28.10;;;;;;6138313;29;20087;-49
2023/03/05 13:31:21;;;;;;;0.50;0.43;;;21.10;28.20;;;;;;6138975;29;20044;-47
2023/03/05 13:34:27;;;;;;;0.22;0.20;;;21.10;28.20;;;;;;6137897;29;20396;-48
2023/03/05 13:37:43;;;;;;;0.52;0.35;;;21.20;28.20;;;;;;6138182;28;20492;-51
2023/03/05 13:40:59;;;;;;;0.30;0.30;;;21.10;28.20;;;;;;6139356;29;20090;-47
2023/03/05 13:44:02;;;;;;;0.50;0.40;;;21.20;28.20;;;;;;6138731;29;20048;-49
2023/03/05 13:47:11;;;;;;;0.40;0.40;;;21.20;28.30;;;;;;6138206;29;20055;-51
2023/03/05 13:50:24;;;;;;;0.40;0.40;;;21.10;28.20;;;;;;6139419;29;20055;-49
2023/03/05 13:53:29;;;;;;;0.40;0.40;;;21.10;28.20;;;;;;6137215;29;20055;-51
2023/03/05 13:56:31;;;;;;;0.50;0.50;;;21.10;28.20;;;;;;6137717;29;20048;-47
2023/03/05 13:59:34;;;;;;;0.45;0.40;;;21.20;28.30;;;;;;6138830;29;20565;-49
2023/03/05 14:02:42;;;;;;;0.40;0.40;;;21.20;28.20;;;;;;6137937;29;20048;-47
2023/03/05 14:05:44;;;;;;;0.60;0.50;;;21.20;28.20;;;;;;6138479;29;20044;-49
2023/03/05 14:08:50;;;;;;;0.40;0.40;;;21.20;28.20;;;;;;6138142;29;20071;-48
2023/03/05 14:11:54;;;;;;;0.52;0.50;;;21.20;28.20;;;;;;6138130;29;20048;-49
2023/03/05 14:14:57;;;;;;;0.52;0.45;;;21.00;28.20;;;;;;6135815;29;20052;-47
2023/03/05 14:18:16;;;;;;;0.50;0.45;;;21.00;28.20;;;;;;6135694;29;20052;-49
2023/03/05 14:21:18;;;;;;;0.40;0.40;;;21.00;28.20;;;;;;6135652;29;20048;-48
2023/03/05 14:24:21;;;;;;;;;;;20.90;28.20;;;;;;6136716;29;20513;-48
2023/03/05 14:27:25;;;;;;;0.98;0.45;;;20.90;28.20;;;;;;6135716;29;19930;-48
2023/03/05 14:30:34;;;;;;;0.60;0.55;;;21.00;28.20;;;;;;6135272;29;20056;-50
2023/03/05 14:33:37;;;;;;;0.68;0.68;;;21.30;28.30;;;;;;6134566;29;20177;-48
2023/03/05 14:36:39;;;;;;;0.50;0.50;;;21.20;28.30;;;;;;6135977;29;20047;-50
2023/03/05 14:39:48;;;;;;;0.50;0.50;;;21.00;28.20;;;;;;6135511;29;20055;-48
2023/03/05 14:42:51;;;;;;;0.68;0.60;;;21.20;28.30;;;;;;6135224;29;20051;-50
2023/03/05 14:45:52;;;;;;;0.50;0.50;;;21.20;28.30;;;;;;6111126;29;20052;-49
2023/03/05 14:48:54;;;;;;;0.52;0.40;;;21.20;28.30;;;;;;6138605;29;20075;-49
2023/03/05 14:51:59;;;;;;;;;;;21.10;28.20;;;;;;6139019;29;20103;-49
2023/03/05 14:55:01;;;;;;;0.35;0.35;;;21.50;28.40;;;;;;6137925;29;19930;-50
2023/03/05 14:58:09;;;;;;;0.85;0.60;;;21.00;28.20;;;;;;6137710;29;20036;-49
2023/03/05 15:01:11;;;;;;;0.73;0.50;;;21.20;28.20;;;;;;6136921;29;20044;-50
2023/03/05 15:04:18;;;;;;;0.52;0.40;;;21.20;28.30;;;;;;6140083;29;20036;-49
2023/03/05 15:07:24;;;;;;;0.50;0.50;;;21.20;28.30;;;;;;6142764;29;20048;-49
2023/03/05 15:10:26;;;;;;;0.55;0.47;;;21.20;28.20;;;;;;6141276;29;20067;-46
2023/03/05 15:13:27;;;;;;;0.63;0.47;;;21.30;28.30;;;;;;6142294;29;20044;-47
2023/03/05 15:16:34;;;;;;;0.60;0.50;;;20.80;28.10;;;;;;6141993;29;20040;-47
2023/03/05 15:19:36;;;;;;;0.50;0.50;;;21.10;28.20;;;;;;6142071;29;20054;-49
2023/03/05 15:22:38;;;;;;;0.63;0.52;;;21.00;28.10;;;;;;6141323;29;20043;-48
2023/03/05 15:25:41;;;;;;;0.60;0.60;;;21.30;28.30;;;;;;6141716;29;20055;-51
2023/03/05 15:28:43;;;;;;;0.50;0.50;;;20.90;28.10;;;;;;6140740;29;20058;-50
2023/03/05 15:31:46;;;;;;;0.57;0.40;;;21.20;28.20;;;;;;6141938;29;20040;-51
2023/03/05 15:34:47;;;;;;;0.70;0.60;;;21.20;28.30;;;;;;6141197;29;20044;-47
2023/03/05 15:37:51;;;;;;;0.45;0.40;;;21.30;28.30;;;;;;6140759;29;20039;-49
2023/03/05 15:40:54;;;;;;;0.60;0.57;;;21.20;28.20;;;;;;6139455;29;20079;-49
2023/03/05 15:43:55;;;;;;;0.55;0.50;;;21.10;28.30;;;;;;6139056;29;20047;-47
2023/03/05 15:46:57;;;;;;;0.60;0.60;;;21.10;28.20;;;;;;6141121;29;20044;-50
2023/03/05 15:49:58;;;;;;;;;;;21.10;28.30;;;;;;6140557;29;20047;-49
2023/03/05 15:52:59;;;;;;;0.68;0.50;;;20.90;28.20;;;;;;6141493;29;19929;-50
2023/03/05 15:56:01;;;;;;;;;;;21.20;28.30;;;;;;6141139;29;20048;-49
2023/03/05 15:59:03;;;;;;;;;;;20.90;28.30;;;;;;6140871;29;20368;-49
2023/03/05 16:02:05;;;;;;;0.60;0.55;;;21.10;28.40;;;;;;6140296;29;19933;-50
2023/03/05 16:05:08;;;;;;;0.60;0.60;;;21.20;28.40;;;;;;6140687;29;20040;-48
2023/03/05 16:08:09;;;;;;;0.52;0.50;;;21.00;28.30;;;;;;6140175;29;20052;-46